Time;durP1;ratioP1;P1;durP2;ratioP2;P2;SDS_P1;SDS_P2;PMS_P1;PMS_P2;Temp;Humidity;BMP_temperature;BMP_pressure;BME280_temperature;BME280_humidity;BME280_pressure;Samples;Min_cycle;Max_cycle;Signal;HPM_P1;HPM_P2
2023/03/04 00:02:17;;;;;;;;;;;;;;;;;;5092125;28;895;-71
2023/03/04 00:04:42;;;;;;;;;;;;;;;;;;5091900;28;892;-70
2023/03/04 00:07:08;;;;;;;;;;;;;;;;;;5090766;28;1167;-70
2023/03/04 00:09:33;;;;;;;;;;;;;;;;;;5090605;28;1422;-71
2023/03/04 00:11:58;;;;;;;;;;;;;;;;;;5091947;28;958;-71
2023/03/04 00:14:24;;;;;;;;;;;;;;;;;;5074013;28;1115;-71
2023/03/04 00:16:49;;;;;;;;;;;;;;;;;;5091483;28;864;-71
2023/03/04 00:19:14;;;;;;;;;;;;;;;;;;5091615;28;1914;-71
2023/03/04 00:21:39;;;;;;;;;;;;;;;;;;5090362;28;1242;-71
2023/03/04 00:24:05;;;;;;;;;;;;;;;;;;5092606;28;939;-71
2023/03/04 00:26:31;;;;;;;;;;;;;;;;;;5094376;28;1328;-71
2023/03/04 00:28:56;;;;;;;;;;;;;;;;;;5077553;28;1157;-71
2023/03/04 00:31:21;;;;;;;;;;;;;;;;;;5095381;28;864;-71
2023/03/04 00:33:46;;;;;;;;;;;;;;;;;;5095489;28;1002;-71
2023/03/04 00:36:12;;;;;;;;;;;;;;;;;;5094446;28;948;-71
2023/03/04 00:38:37;;;;;;;;;;;;;;;;;;5094153;28;1895;-70
2023/03/04 00:41:02;;;;;;;;;;;;;;;;;;5095736;28;872;-71
2023/03/04 00:43:28;;;;;;;;;;;;;;;;;;5095743;28;1054;-71
2023/03/04 00:45:54;;;;;;;;;;;;;;;;;;5095454;28;895;-71
2023/03/04 00:48:19;;;;;;;;;;;;;;;;;;5096137;28;832;-71
2023/03/04 00:50:44;;;;;;;;;;;;;;;;;;5093530;28;1210;-71
2023/03/04 00:53:10;;;;;;;;;;;;;;;;;;5094048;28;1021;-72
2023/03/04 00:55:35;;;;;;;;;;;;;;;;;;5093918;28;1336;-71
2023/03/04 00:58:01;;;;;;;;;;;;;;;;;;5093738;28;1969;-71
2023/03/04 01:00:26;;;;;;;;;;;;;;;;;;5095388;28;955;-72
2023/03/04 01:02:51;;;;;;;;;;;;;;;;;;5095110;28;910;-71
2023/03/04 01:05:16;;;;;;;;;;;;;;;;;;5093867;28;1151;-72
2023/03/04 01:07:42;;;;;;;;;;;;;;;;;;5093782;28;1190;-71
2023/03/04 01:10:08;;;;;;;;;;;;;;;;;;5095039;28;896;-71
2023/03/04 01:12:33;;;;;;;;;;;;;;;;;;5094926;28;977;-72
2023/03/04 01:14:58;;;;;;;;;;;;;;;;;;5093871;28;884;-71
2023/03/04 01:17:24;;;;;;;;;;;;;;;;;;5095614;28;1949;-71
2023/03/04 01:19:49;;;;;;;;;;;;;;;;;;5127664;27;1299;-71
2023/03/04 01:22:15;;;;;;;;;;;;;;;;;;5095563;28;848;-71
2023/03/04 01:24:41;;;;;;;;;;;;;;;;;;5094875;28;836;-71
2023/03/04 01:27:06;;;;;;;;;;;;;;;;;;5094130;28;1029;-71
2023/03/04 01:29:32;;;;;;;;;;;;;;;;;;5095188;28;896;-72
2023/03/04 01:31:57;;;;;;;;;;;;;;;;;;5076804;28;1317;-72
2023/03/04 01:34:22;;;;;;;;;;;;;;;;;;5094597;28;900;-72
2023/03/04 01:36:48;;;;;;;;;;;;;;;;;;5093062;28;1233;-71
2023/03/04 01:39:13;;;;;;;;;;;;;;;;;;5094522;28;1909;-71
2023/03/04 01:41:39;;;;;;;;;;;;;;;;;;5094574;28;754;-71
2023/03/04 01:44:05;;;;;;;;;;;;;;;;;;5093113;28;1308;-71
2023/03/04 01:46:30;;;;;;;;;;;;;;;;;;5094579;28;895;-72
2023/03/04 01:48:56;;;;;;;;;;;;;;;;;;5094247;28;911;-72
2023/03/04 01:51:22;;;;;;;;;;;;;;;;;;5076244;28;1274;-72
2023/03/04 01:53:53;;;;;;;;;;;;;;;;;;5093890;28;860;-71
2023/03/04 01:56:27;;;;;;;;;;;;;;;;;;5092814;28;1292;-71
2023/03/04 01:59:11;;;;;;;;;;;;;;;;;;5093785;28;1975;-71
2023/03/04 02:01:37;;;;;;;;;;;;;;;;;;5092587;28;1214;-71
2023/03/04 02:04:03;;;;;;;;;;;;;;;;;;5092624;28;1222;-71
2023/03/04 02:06:28;;;;;;;;;;;;;;;;;;5093803;28;863;-71
2023/03/04 02:08:53;;;;;;;;;;;;;;;;;;5093157;28;910;-70
2023/03/04 02:11:19;;;;;;;;;;;;;;;;;;5092641;28;1335;-71
2023/03/04 02:13:44;;;;;;;;;;;;;;;;;;5091989;28;1299;-70
2023/03/04 02:16:10;;;;;;;;;;;;;;;;;;5093904;28;1007;-71
2023/03/04 02:18:35;;;;;;;;;;;;;;;;;;5093810;28;1898;-71
2023/03/04 02:21:12;;;;;;;;;;;;;;;;;;5092197;28;1166;-70
2023/03/04 02:23:51;;;;;;;;;;;;;;;;;;5093557;28;904;-71
2023/03/04 02:26:17;;;;;;;;;;;;;;;;;;5092615;28;1256;-70
2023/03/04 02:28:42;;;;;;;;;;;;;;;;;;5093199;28;817;-70
2023/03/04 02:31:28;;;;;;;;;;;;;;;;;;5093588;28;849;-70
2023/03/04 02:33:55;;;;;;;;;;;;;;;;;;5086338;28;1396;-71
2023/03/04 02:36:20;;;;;;;;;;;;;;;;;;5093707;28;785;-71
2023/03/04 02:38:46;;;;;;;;;;;;;;;;;;5093557;28;1949;-71
2023/03/04 02:41:16;;;;;;;;;;;;;;;;;;5092256;28;1314;-71
2023/03/04 02:43:42;;;;;;;;;;;;;;;;;;5093463;28;849;-71
2023/03/04 02:46:11;;;;;;;;;;;;;;;;;;5092503;28;892;-71
2023/03/04 02:48:36;;;;;;;;;;;;;;;;;;5093142;28;986;-71
2023/03/04 02:51:01;;;;;;;;;;;;;;;;;;5092305;28;1254;-71
2023/03/04 02:53:27;;;;;;;;;;;;;;;;;;5092522;28;812;-71
2023/03/04 02:55:53;;;;;;;;;;;;;;;;;;5093052;28;884;-71
2023/03/04 02:58:18;;;;;;;;;;;;;;;;;;5091954;28;1917;-71
2023/03/04 03:00:43;;;;;;;;;;;;;;;;;;5091370;28;1217;-71
2023/03/04 03:03:08;;;;;;;;;;;;;;;;;;5091522;28;963;-71
2023/03/04 03:05:34;;;;;;;;;;;;;;;;;;5093307;28;923;-71
2023/03/04 03:07:59;;;;;;;;;;;;;;;;;;5092674;28;808;-71
2023/03/04 03:10:25;;;;;;;;;;;;;;;;;;5074871;28;1273;-71
2023/03/04 03:12:50;;;;;;;;;;;;;;;;;;5091281;28;1229;-71
2023/03/04 03:15:16;;;;;;;;;;;;;;;;;;5091393;28;1347;-71
2023/03/04 03:17:41;;;;;;;;;;;;;;;;;;5091317;28;1890;-71
2023/03/04 03:20:07;;;;;;;;;;;;;;;;;;5091952;28;919;-71
2023/03/04 03:22:33;;;;;;;;;;;;;;;;;;5092530;28;1219;-71
2023/03/04 03:24:58;;;;;;;;;;;;;;;;;;5074040;28;1294;-71
2023/03/04 03:27:23;;;;;;;;;;;;;;;;;;5091395;28;1139;-71
2023/03/04 03:29:49;;;;;;;;;;;;;;;;;;5090701;28;888;-71
2023/03/04 03:32:14;;;;;;;;;;;;;;;;;;5092245;28;1049;-71
2023/03/04 03:34:39;;;;;;;;;;;;;;;;;;5074291;28;1230;-71
2023/03/04 03:37:04;;;;;;;;;;;;;;;;;;5092118;28;939;-71
2023/03/04 03:39:30;;;;;;;;;;;;;;;;;;5091142;28;1961;-71
2023/03/04 03:41:55;;;;;;;;;;;;;;;;;;5074164;28;1155;-71
2023/03/04 03:44:20;;;;;;;;;;;;;;;;;;5091080;28;1190;-70
2023/03/04 03:46:46;;;;;;;;;;;;;;;;;;5073976;28;1131;-71
2023/03/04 03:49:11;;;;;;;;;;;;;;;;;;5091006;28;920;-71
2023/03/04 03:51:37;;;;;;;;;;;;;;;;;;5090392;28;1381;-71
2023/03/04 03:54:02;;;;;;;;;;;;;;;;;;5090566;28;1158;-71
2023/03/04 03:56:28;;;;;;;;;;;;;;;;;;5073706;28;1364;-70
2023/03/04 03:58:53;;;;;;;;;;;;;;;;;;5090845;28;1973;-70
2023/03/04 04:01:18;;;;;;;;;;;;;;;;;;5091950;28;864;-71
2023/03/04 04:03:44;;;;;;;;;;;;;;;;;;5091777;28;844;-71
2023/03/04 04:06:09;;;;;;;;;;;;;;;;;;5091574;28;879;-71
2023/03/04 04:08:34;;;;;;;;;;;;;;;;;;5090233;28;1221;-71
2023/03/04 04:11:00;;;;;;;;;;;;;;;;;;5090492;28;1178;-71
2023/03/04 04:13:25;;;;;;;;;;;;;;;;;;5091145;28;1253;-71
2023/03/04 04:15:50;;;;;;;;;;;;;;;;;;5092160;28;912;-70
2023/03/04 04:18:16;;;;;;;;;;;;;;;;;;5091209;28;1898;-71
2023/03/04 04:20:41;;;;;;;;;;;;;;;;;;5091044;28;1288;-70
2023/03/04 04:23:06;;;;;;;;;;;;;;;;;;5092119;28;978;-71
2023/03/04 04:25:32;;;;;;;;;;;;;;;;;;5091295;28;888;-71
2023/03/04 04:27:57;;;;;;;;;;;;;;;;;;5091787;28;939;-70
2023/03/04 04:30:22;;;;;;;;;;;;;;;;;;5090512;28;904;-70
2023/03/04 04:32:47;;;;;;;;;;;;;;;;;;5090085;28;1058;-71
2023/03/04 04:35:13;;;;;;;;;;;;;;;;;;5090641;28;1253;-70
2023/03/04 04:37:38;;;;;;;;;;;;;;;;;;5091612;28;1972;-71
2023/03/04 04:40:03;;;;;;;;;;;;;;;;;;5089900;28;1250;-70
2023/03/04 04:42:29;;;;;;;;;;;;;;;;;;5091344;28;883;-71
2023/03/04 04:44:56;;;;;;;;;;;;;;;;;;5090625;28;1162;-71
2023/03/04 04:47:21;;;;;;;;;;;;;;;;;;5090888;28;904;-71
2023/03/04 04:49:46;;;;;;;;;;;;;;;;;;5091465;28;892;-71
2023/03/04 04:52:11;;;;;;;;;;;;;;;;;;5090432;28;1088;-72
2023/03/04 04:54:37;;;;;;;;;;;;;;;;;;5092045;28;1030;-71
2023/03/04 04:57:02;;;;;;;;;;;;;;;;;;5090305;28;963;-71
2023/03/04 04:59:27;;;;;;;;;;;;;;;;;;5091689;28;1899;-71
2023/03/04 05:01:53;;;;;;;;;;;;;;;;;;5091909;28;931;-71
2023/03/04 05:04:18;;;;;;;;;;;;;;;;;;5090836;28;1300;-70
2023/03/04 05:06:43;;;;;;;;;;;;;;;;;;5091058;28;880;-71
2023/03/04 05:09:09;;;;;;;;;;;;;;;;;;5073630;28;1210;-70
2023/03/04 05:11:34;;;;;;;;;;;;;;;;;;5095259;28;914;-71
2023/03/04 05:13:59;;;;;;;;;;;;;;;;;;5094317;28;992;-71
2023/03/04 05:16:25;;;;;;;;;;;;;;;;;;5095239;28;1107;-71
2023/03/04 05:18:50;;;;;;;;;;;;;;;;;;5093646;28;1898;-70
2023/03/04 05:21:15;;;;;;;;;;;;;;;;;;5094273;28;1119;-71
2023/03/04 05:23:41;;;;;;;;;;;;;;;;;;5095034;28;919;-71
2023/03/04 05:26:07;;;;;;;;;;;;;;;;;;5094699;28;888;-71
2023/03/04 05:28:32;;;;;;;;;;;;;;;;;;5093518;28;1198;-71
2023/03/04 05:30:58;;;;;;;;;;;;;;;;;;5094428;28;844;-70
2023/03/04 05:33:23;;;;;;;;;;;;;;;;;;5093338;28;1151;-71
2023/03/04 05:35:49;;;;;;;;;;;;;;;;;;5093093;28;1154;-71
2023/03/04 05:38:16;;;;;;;;;;;;;;;;;;5094572;28;1895;-71
2023/03/04 05:40:42;;;;;;;;;;;;;;;;;;5093350;28;1245;-71
2023/03/04 05:43:07;;;;;;;;;;;;;;;;;;5096015;28;1092;-71
2023/03/04 05:45:32;;;;;;;;;;;;;;;;;;5093518;28;912;-71
2023/03/04 05:47:58;;;;;;;;;;;;;;;;;;5093064;28;821;-70
2023/03/04 05:50:23;;;;;;;;;;;;;;;;;;5093475;28;833;-71
2023/03/04 05:52:49;;;;;;;;;;;;;;;;;;5094216;28;1309;-71
2023/03/04 05:55:15;;;;;;;;;;;;;;;;;;5093618;28;1240;-71
2023/03/04 05:57:40;;;;;;;;;;;;;;;;;;5094874;28;1913;-71
2023/03/04 06:00:08;;;;;;;;;;;;;;;;;;5093177;28;1227;-71
2023/03/04 06:02:33;;;;;;;;;;;;;;;;;;5093677;28;1162;-71
2023/03/04 06:04:59;;;;;;;;;;;;;;;;;;5093168;28;1285;-71
2023/03/04 06:07:24;;;;;;;;;;;;;;;;;;5093295;28;1064;-70
2023/03/04 06:09:49;;;;;;;;;;;;;;;;;;5092702;28;1036;-71
2023/03/04 06:12:14;;;;;;;;;;;;;;;;;;5094092;28;879;-71
2023/03/04 06:14:40;;;;;;;;;;;;;;;;;;5092590;28;1282;-71
2023/03/04 06:17:05;;;;;;;;;;;;;;;;;;5075128;28;1364;-71
2023/03/04 06:19:30;;;;;;;;;;;;;;;;;;5092301;28;1909;-71
2023/03/04 06:21:56;;;;;;;;;;;;;;;;;;5092515;28;900;-71
2023/03/04 06:24:21;;;;;;;;;;;;;;;;;;5092008;28;840;-71
2023/03/04 06:26:46;;;;;;;;;;;;;;;;;;5092146;28;1147;-70
2023/03/04 06:29:11;;;;;;;;;;;;;;;;;;5092143;28;884;-71
2023/03/04 06:31:37;;;;;;;;;;;;;;;;;;5092214;28;1376;-71
2023/03/04 06:34:02;;;;;;;;;;;;;;;;;;5091414;28;1179;-71
2023/03/04 06:36:27;;;;;;;;;;;;;;;;;;5093383;28;887;-71
2023/03/04 06:38:52;;;;;;;;;;;;;;;;;;5091895;28;1953;-70
2023/03/04 06:41:18;;;;;;;;;;;;;;;;;;5091652;28;948;-71
2023/03/04 06:43:43;;;;;;;;;;;;;;;;;;5074713;28;1282;-71
2023/03/04 06:46:09;;;;;;;;;;;;;;;;;;5092727;28;935;-71
2023/03/04 06:48:34;;;;;;;;;;;;;;;;;;5091985;28;1178;-71
2023/03/04 06:51:10;;;;;;;;;;;;;;;;;;5091190;28;1423;-71
2023/03/04 06:53:36;;;;;;;;;;;;;;;;;;5091622;28;1154;-71
2023/03/04 06:56:02;;;;;;;;;;;;;;;;;;5075091;28;1411;-71
2023/03/04 06:58:27;;;;;;;;;;;;;;;;;;5074698;28;1973;-71
2023/03/04 07:00:53;;;;;;;;;;;;;;;;;;5091217;28;836;-71
2023/03/04 07:03:18;;;;;;;;;;;;;;;;;;5074517;28;1155;-71
2023/03/04 07:05:43;;;;;;;;;;;;;;;;;;5091819;28;1209;-72
2023/03/04 07:08:09;;;;;;;;;;;;;;;;;;5074159;28;1320;-70
2023/03/04 07:10:34;;;;;;;;;;;;;;;;;;5091757;28;1177;-71
2023/03/04 07:13:00;;;;;;;;;;;;;;;;;;5092664;28;1049;-70
2023/03/04 07:15:25;;;;;;;;;;;;;;;;;;5091044;28;1261;-70
2023/03/04 07:17:51;;;;;;;;;;;;;;;;;;5092435;28;1953;-71
2023/03/04 07:20:16;;;;;;;;;;;;;;;;;;5092636;28;786;-70
2023/03/04 07:22:42;;;;;;;;;;;;;;;;;;5091868;28;1223;-70
2023/03/04 07:25:07;;;;;;;;;;;;;;;;;;5091616;28;876;-70
2023/03/04 07:27:32;;;;;;;;;;;;;;;;;;5091984;28;1126;-70
2023/03/04 07:29:58;;;;;;;;;;;;;;;;;;5091760;28;1062;-70
2023/03/04 07:32:23;;;;;;;;;;;;;;;;;;5092849;28;833;-71
2023/03/04 07:34:48;;;;;;;;;;;;;;;;;;5092950;28;813;-71
2023/03/04 07:37:14;;;;;;;;;;;;;;;;;;5091779;28;971;-70
2023/03/04 07:39:39;;;;;;;;;;;;;;;;;;5092455;28;1977;-71
2023/03/04 07:42:04;;;;;;;;;;;;;;;;;;5092601;28;991;-71
2023/03/04 07:44:30;;;;;;;;;;;;;;;;;;5074300;28;1327;-71
2023/03/04 07:46:55;;;;;;;;;;;;;;;;;;5073754;28;1202;-71
2023/03/04 07:49:20;;;;;;;;;;;;;;;;;;5091260;28;896;-71
2023/03/04 07:51:46;;;;;;;;;;;;;;;;;;5091206;28;1406;-71
2023/03/04 07:54:11;;;;;;;;;;;;;;;;;;5092176;28;856;-71
2023/03/04 07:56:36;;;;;;;;;;;;;;;;;;5092737;28;991;-71
2023/03/04 07:59:02;;;;;;;;;;;;;;;;;;5091148;28;1910;-71
2023/03/04 08:01:31;;;;;;;;;;;;;;;;;;5074149;28;1148;-71
2023/03/04 08:03:57;;;;;;;;;;;;;;;;;;5090918;28;1270;-71
2023/03/04 08:06:23;;;;;;;;;;;;;;;;;;5092587;28;808;-70
2023/03/04 08:08:49;;;;;;;;;;;;;;;;;;5092799;28;868;-70
2023/03/04 08:11:16;;;;;;;;;;;;;;;;;;5091054;28;899;-70
2023/03/04 08:13:41;;;;;;;;;;;;;;;;;;5091890;28;1206;-71
2023/03/04 08:16:07;;;;;;;;;;;;;;;;;;5092583;28;1039;-71
2023/03/04 08:18:32;;;;;;;;;;;;;;;;;;5093357;28;1897;-71
2023/03/04 08:20:58;;;;;;;;;;;;;;;;;;5091019;28;1186;-71
2023/03/04 08:23:23;;;;;;;;;;;;;;;;;;5074673;28;1133;-71
2023/03/04 08:25:49;;;;;;;;;;;;;;;;;;5092273;28;833;-71
2023/03/04 08:28:14;;;;;;;;;;;;;;;;;;5090857;28;1286;-71
2023/03/04 08:30:40;;;;;;;;;;;;;;;;;;5092704;28;864;-71
2023/03/04 08:33:05;;;;;;;;;;;;;;;;;;5091758;28;1162;-72
2023/03/04 08:35:30;;;;;;;;;;;;;;;;;;5092657;28;869;-72
2023/03/04 08:37:56;;;;;;;;;;;;;;;;;;5090769;28;1897;-72
2023/03/04 08:40:21;;;;;;;;;;;;;;;;;;5091036;28;1272;-71
2023/03/04 08:42:46;;;;;;;;;;;;;;;;;;5091293;28;852;-71
2023/03/04 08:45:12;;;;;;;;;;;;;;;;;;5091467;28;908;-71
2023/03/04 08:47:38;;;;;;;;;;;;;;;;;;5095947;28;1003;-71
2023/03/04 08:50:04;;;;;;;;;;;;;;;;;;5094960;28;1308;-71
2023/03/04 08:52:30;;;;;;;;;;;;;;;;;;5095498;28;1264;-71
2023/03/04 08:54:55;;;;;;;;;;;;;;;;;;5095832;28;884;-70
2023/03/04 08:57:21;;;;;;;;;;;;;;;;;;5094924;28;840;-70
2023/03/04 08:59:46;;;;;;;;;;;;;;;;;;5094115;28;1910;-71
2023/03/04 09:02:11;;;;;;;;;;;;;;;;;;5095583;28;1046;-71
2023/03/04 09:04:37;;;;;;;;;;;;;;;;;;5095563;28;887;-71
2023/03/04 09:07:02;;;;;;;;;;;;;;;;;;5093895;28;1162;-71
2023/03/04 09:09:27;;;;;;;;;;;;;;;;;;5094888;28;887;-71
2023/03/04 09:11:52;;;;;;;;;;;;;;;;;;5094012;28;1003;-72
2023/03/04 09:14:18;;;;;;;;;;;;;;;;;;5093649;28;1066;-71
2023/03/04 09:16:43;;;;;;;;;;;;;;;;;;5076915;28;1163;-72
2023/03/04 09:19:09;;;;;;;;;;;;;;;;;;5093540;28;1965;-71
2023/03/04 09:21:34;;;;;;;;;;;;;;;;;;5095269;28;844;-72
2023/03/04 09:23:59;;;;;;;;;;;;;;;;;;5093907;28;1165;-71
2023/03/04 09:26:26;;;;;;;;;;;;;;;;;;5093977;28;844;-71
2023/03/04 09:28:52;;;;;;;;;;;;;;;;;;5094719;28;802;-71
2023/03/04 09:31:17;;;;;;;;;;;;;;;;;;5076818;28;1217;-71
2023/03/04 09:33:42;;;;;;;;;;;;;;;;;;5095246;28;995;-71
2023/03/04 09:36:11;;;;;;;;;;;;;;;;;;5095115;28;952;-71
2023/03/04 09:38:37;;;;;;;;;;;;;;;;;;5093620;28;1964;-72
2023/03/04 09:41:04;;;;;;;;;;;;;;;;;;5093158;28;1289;-71
2023/03/04 09:43:30;;;;;;;;;;;;;;;;;;5094634;28;954;-71
2023/03/04 09:45:57;;;;;;;;;;;;;;;;;;5093449;28;1154;-71
2023/03/04 09:48:26;;;;;;;;;;;;;;;;;;5093188;28;1342;-71
2023/03/04 09:51:02;;;;;;;;;;;;;;;;;;5093094;28;1202;-71
2023/03/04 09:53:47;;;;;;;;;;;;;;;;;;5094819;28;899;-71
2023/03/04 09:56:13;;;;;;;;;;;;;;;;;;5072476;28;1214;-71
2023/03/04 09:58:38;;;;;;;;;;;;;;;;;;5094951;28;1909;-71
2023/03/04 10:01:16;;;;;;;;;;;;;;;;;;5093555;28;1154;-71
2023/03/04 10:03:47;;;;;;;;;;;;;;;;;;5094634;28;1043;-71
2023/03/04 10:06:16;;;;;;;;;;;;;;;;;;5094149;28;872;-71
2023/03/04 10:08:48;;;;;;;;;;;;;;;;;;5093585;28;896;-71
2023/03/04 10:11:22;;;;;;;;;;;;;;;;;;5092130;28;1245;-71
2023/03/04 10:13:47;;;;;;;;;;;;;;;;;;5094297;28;887;-71
2023/03/04 10:16:15;;;;;;;;;;;;;;;;;;5092943;28;1288;-72
2023/03/04 10:18:53;;;;;;;;;;;;;;;;;;5093014;28;1914;-71
2023/03/04 10:21:22;;;;;;;;;;;;;;;;;;5095526;28;1215;-71
2023/03/04 10:23:48;;;;;;;;;;;;;;;;;;5114156;28;1274;-71
2023/03/04 10:26:14;;;;;;;;;;;;;;;;;;5112819;28;1020;-73
2023/03/04 10:28:40;;;;;;;;;;;;;;;;;;5111434;28;1296;-73
2023/03/04 10:31:08;;;;;;;;;;;;;;;;;;5104165;28;1198;-73
2023/03/04 10:33:35;;;;;;;;;;;;;;;;;;5100903;28;1171;-73
2023/03/04 10:36:19;;;;;;;;;;;;;;;;;;5092634;28;1213;-73
2023/03/04 10:38:45;;;;;;;;;;;;;;;;;;5087378;28;1956;-73
2023/03/04 10:41:15;;;;;;;;;;;;;;;;;;5091826;28;832;-72
2023/03/04 10:43:44;;;;;;;;;;;;;;;;;;5091733;28;1284;-72
2023/03/04 10:46:09;;;;;;;;;;;;;;;;;;5090278;28;1309;-72
2023/03/04 10:48:36;;;;;;;;;;;;;;;;;;5090634;28;817;-72
2023/03/04 10:51:20;;;;;;;;;;;;;;;;;;5092350;28;1057;-72
2023/03/04 10:53:46;;;;;;;;;;;;;;;;;;5092627;28;894;-72
2023/03/04 10:56:30;;;;;;;;;;;;;;;;;;5092668;28;959;-72
2023/03/04 10:59:18;;;;;;;;;;;;;;;;;;5092878;28;2035;-73
2023/03/04 11:01:44;;;;;;;;;;;;;;;;;;5083363;28;1199;-72
2023/03/04 11:04:19;;;;;;;;;;;;;;;;;;5091890;28;1154;-73
2023/03/04 11:06:44;;;;;;;;;;;;;;;;;;5093674;28;954;-72
2023/03/04 11:09:26;;;;;;;;;;;;;;;;;;5091651;28;1149;-72
2023/03/04 11:11:53;;;;;;;;;;;;;;;;;;5093675;28;844;-72
2023/03/04 11:14:18;;;;;;;;;;;;;;;;;;5093454;28;832;-73
2023/03/04 11:16:51;;;;;;;;;;;;;;;;;;5091867;28;1312;-73
2023/03/04 11:19:19;;;;;;;;;;;;;;;;;;5092321;28;1968;-72
2023/03/04 11:21:44;;;;;;;;;;;;;;;;;;5092261;28;1138;-74
2023/03/04 11:24:29;;;;;;;;;;;;;;;;;;5091593;28;888;-73
2023/03/04 11:27:01;;;;;;;;;;;;;;;;;;5091887;28;1329;-72
2023/03/04 11:29:29;;;;;;;;;;;;;;;;;;5093473;28;1084;-73
2023/03/04 11:31:59;;;;;;;;;;;;;;;;;;5093074;28;1041;-73
2023/03/04 11:34:40;;;;;;;;;;;;;;;;;;5091729;28;1166;-72
2023/03/04 11:37:14;;;;;;;;;;;;;;;;;;5092593;28;1241;-73
2023/03/04 11:39:42;;;;;;;;;;;;;;;;;;5093121;28;1894;-72
2023/03/04 11:42:40;;;;;;;;;;;;;;;;;;5091456;28;1194;-72
2023/03/04 11:45:13;;;;;;;;;;;;;;;;;;5069763;28;1387;-73
2023/03/04 11:47:59;;;;;;;;;;;;;;;;;;5091593;28;1049;-73
2023/03/04 11:50:38;;;;;;;;;;;;;;;;;;5090695;28;1244;-72
2023/03/04 11:53:29;;;;;;;;;;;;;;;;;;5093352;28;1255;-72
2023/03/04 11:56:13;;;;;;;;;;;;;;;;;;5090177;28;1411;-72
2023/03/04 11:58:57;;;;;;;;;;;;;;;;;;5092537;28;1909;-72
2023/03/04 12:01:22;;;;;;;;;;;;;;;;;;5093141;28;848;-72
2023/03/04 12:03:51;;;;;;;;;;;;;;;;;;5092363;28;927;-72
2023/03/04 12:06:41;;;;;;;;;;;;;;;;;;5092225;28;896;-72
2023/03/04 12:09:12;;;;;;;;;;;;;;;;;;5092121;28;937;-72
2023/03/04 12:11:39;;;;;;;;;;;;;;;;;;5092407;28;915;-73
2023/03/04 12:14:16;;;;;;;;;;;;;;;;;;5091038;28;1297;-72
2023/03/04 12:17:14;;;;;;;;;;;;;;;;;;5090258;28;1206;-72
2023/03/04 12:19:51;;;;;;;;;;;;;;;;;;5068674;28;1906;-71
2023/03/04 12:22:20;;;;;;;;;;;;;;;;;;5095011;28;1312;-72
2023/03/04 12:25:04;;;;;;;;;;;;;;;;;;5096663;28;872;-72
2023/03/04 12:27:32;;;;;;;;;;;;;;;;;;5095819;28;1225;-73
2023/03/04 12:30:24;;;;;;;;;;;;;;;;;;5095201;28;1166;-73
2023/03/04 12:32:55;;;;;;;;;;;;;;;;;;5093818;28;944;-73
2023/03/04 12:35:41;;;;;;;;;;;;;;;;;;5095081;28;1174;-73
2023/03/04 12:38:15;;;;;;;;;;;;;;;;;;5094833;28;1904;-73
2023/03/04 12:40:53;;;;;;;;;;;;;;;;;;5095725;28;888;-72
2023/03/04 12:43:18;;;;;;;;;;;;;;;;;;5096173;28;1195;-72
2023/03/04 12:45:49;;;;;;;;;;;;;;;;;;5095357;28;1134;-72
2023/03/04 12:48:15;;;;;;;;;;;;;;;;;;5095161;28;1139;-72
2023/03/04 12:50:46;;;;;;;;;;;;;;;;;;5094423;28;1254;-72
2023/03/04 12:53:14;;;;;;;;;;;;;;;;;;5096180;28;836;-73
2023/03/04 12:55:42;;;;;;;;;;;;;;;;;;5096342;28;844;-72
2023/03/04 12:58:17;;;;;;;;;;;;;;;;;;5094449;28;1918;-72
2023/03/04 13:01:00;;;;;;;;;;;;;;;;;;5095369;28;860;-71
2023/03/04 13:03:35;;;;;;;;;;;;;;;;;;5096204;28;844;-72
2023/03/04 13:06:26;;;;;;;;;;;;;;;;;;5094591;28;1275;-71
2023/03/04 13:09:10;;;;;;;;;;;;;;;;;;5095902;28;836;-72
2023/03/04 13:11:42;;;;;;;;;;;;;;;;;;5094649;28;1661;-71
2023/03/04 13:14:08;;;;;;;;;;;;;;;;;;5094293;28;1323;-71
2023/03/04 13:16:41;;;;;;;;;;;;;;;;;;5094860;28;1238;-71
2023/03/04 13:19:25;;;;;;;;;;;;;;;;;;5094209;28;1909;-71
2023/03/04 13:21:53;;;;;;;;;;;;;;;;;;5093796;28;1348;-71
2023/03/04 13:24:37;;;;;;;;;;;;;;;;;;5093831;28;1258;-71
2023/03/04 13:27:22;;;;;;;;;;;;;;;;;;5094083;28;1205;-71
2023/03/04 13:29:47;;;;;;;;;;;;;;;;;;5093375;28;1305;-71
2023/03/04 13:32:33;;;;;;;;;;;;;;;;;;5095227;28;840;-71
2023/03/04 13:34:58;;;;;;;;;;;;;;;;;;5094741;28;1367;-71
2023/03/04 13:37:28;;;;;;;;;;;;;;;;;;5076854;28;1180;-71
2023/03/04 13:40:12;;;;;;;;;;;;;;;;;;5094717;28;1909;-71
2023/03/04 13:42:41;;;;;;;;;;;;;;;;;;5093499;28;1168;-71
2023/03/04 13:45:25;;;;;;;;;;;;;;;;;;5094113;28;904;-71
2023/03/04 13:47:51;;;;;;;;;;;;;;;;;;5093109;28;1205;-71
2023/03/04 13:50:36;;;;;;;;;;;;;;;;;;5094611;28;829;-71
2023/03/04 13:53:25;;;;;;;;;;;;;;;;;;5091672;28;1342;-71
2023/03/04 13:56:02;;;;;;;;;;;;;;;;;;5092297;28;1402;-71
2023/03/04 13:58:27;;;;;;;;;;;;;;;;;;5094744;28;1894;-71
2023/03/04 14:00:54;;;;;;;;;;;;;;;;;;5092758;28;1130;-71
2023/03/04 14:03:20;;;;;;;;;;;;;;;;;;5094117;28;892;-71
2023/03/04 14:05:46;;;;;;;;;;;;;;;;;;5094348;28;840;-71
2023/03/04 14:08:19;;;;;;;;;;;;;;;;;;5076002;28;1163;-71
2023/03/04 14:10:44;;;;;;;;;;;;;;;;;;5093109;28;825;-71
2023/03/04 14:13:10;;;;;;;;;;;;;;;;;;5075959;28;1054;-71
2023/03/04 14:15:36;;;;;;;;;;;;;;;;;;5094421;28;895;-71
2023/03/04 14:18:03;;;;;;;;;;;;;;;;;;5092909;28;1953;-72
2023/03/04 14:20:33;;;;;;;;;;;;;;;;;;5093679;28;1154;-71
2023/03/04 14:23:00;;;;;;;;;;;;;;;;;;5093983;28;906;-71
2023/03/04 14:25:27;;;;;;;;;;;;;;;;;;5094230;28;939;-71
2023/03/04 14:28:10;;;;;;;;;;;;;;;;;;5093730;28;761;-71
2023/03/04 14:30:35;;;;;;;;;;;;;;;;;;5092715;28;1316;-71
2023/03/04 14:33:01;;;;;;;;;;;;;;;;;;5092520;28;1321;-71
2023/03/04 14:35:31;;;;;;;;;;;;;;;;;;5094514;28;871;-72
2023/03/04 14:38:04;;;;;;;;;;;;;;;;;;5094310;28;1890;-72
2023/03/04 14:40:33;;;;;;;;;;;;;;;;;;5092990;28;1313;-71
2023/03/04 14:43:02;;;;;;;;;;;;;;;;;;5093312;28;1053;-71
2023/03/04 14:45:28;;;;;;;;;;;;;;;;;;5092971;28;1280;-70
2023/03/04 14:47:56;;;;;;;;;;;;;;;;;;5093187;28;1170;-71
2023/03/04 14:50:21;;;;;;;;;;;;;;;;;;5094286;28;820;-71
2023/03/04 14:52:50;;;;;;;;;;;;;;;;;;5094394;28;1191;-71
2023/03/04 14:55:21;;;;;;;;;;;;;;;;;;5091408;28;1201;-71
2023/03/04 14:57:57;;;;;;;;;;;;;;;;;;5091547;28;856;-72
2023/03/04 15:00:33;;;;;;;;;;;;;;;;;;5089759;28;1209;-72
2023/03/04 15:03:00;;;;;;;;;;;;;;;;;;5089681;28;1226;-72
2023/03/04 15:05:32;;;;;;;;;;;;;;;;;;5091388;28;1033;-72
2023/03/04 15:07:59;;;;;;;;;;;;;;;;;;5089767;28;1060;-72
2023/03/04 15:10:26;;;;;;;;;;;;;;;;;;5089650;28;1192;-72
2023/03/04 15:12:58;;;;;;;;;;;;;;;;;;5091243;28;1250;-71
2023/03/04 15:15:30;;;;;;;;;;;;;;;;;;5093525;28;1183;-71
2023/03/04 15:18:00;;;;;;;;;;;;;;;;;;5113144;28;2250;-72
2023/03/04 15:20:27;;;;;;;;;;;;;;;;;;5113915;28;915;-71
2023/03/04 15:22:52;;;;;;;;;;;;;;;;;;5113428;28;844;-72
2023/03/04 15:25:18;;;;;;;;;;;;;;;;;;5112134;28;1177;-71
2023/03/04 15:27:44;;;;;;;;;;;;;;;;;;5112379;28;1181;-72
2023/03/04 15:30:14;;;;;;;;;;;;;;;;;;5111771;28;1282;-72
2023/03/04 15:32:40;;;;;;;;;;;;;;;;;;5113410;28;1011;-72
2023/03/04 15:35:05;;;;;;;;;;;;;;;;;;5111766;28;911;-72
2023/03/04 15:37:30;;;;;;;;;;;;;;;;;;5113222;28;911;-72
2023/03/04 15:39:56;;;;;;;;;;;;;;;;;;5094734;28;1906;-72
2023/03/04 15:42:22;;;;;;;;;;;;;;;;;;5111946;28;1210;-71
2023/03/04 15:44:47;;;;;;;;;;;;;;;;;;5111740;28;1016;-71
2023/03/04 15:47:13;;;;;;;;;;;;;;;;;;5111501;28;1206;-71
2023/03/04 15:49:39;;;;;;;;;;;;;;;;;;5110766;28;1189;-71
2023/03/04 15:52:05;;;;;;;;;;;;;;;;;;5110804;28;1131;-71
2023/03/04 15:54:30;;;;;;;;;;;;;;;;;;5112059;28;907;-71
2023/03/04 15:56:57;;;;;;;;;;;;;;;;;;5111839;28;812;-72
2023/03/04 15:59:23;;;;;;;;;;;;;;;;;;5110296;28;1910;-72
2023/03/04 16:01:48;;;;;;;;;;;;;;;;;;5110025;28;903;-71
2023/03/04 16:04:15;;;;;;;;;;;;;;;;;;5093150;28;1276;-72
2023/03/04 16:06:42;;;;;;;;;;;;;;;;;;5111996;28;1186;-71
2023/03/04 16:09:09;;;;;;;;;;;;;;;;;;5112450;28;891;-72
2023/03/04 16:11:38;;;;;;;;;;;;;;;;;;5112914;28;773;-72
2023/03/04 16:14:04;;;;;;;;;;;;;;;;;;5110760;28;1328;-70
2023/03/04 16:16:29;;;;;;;;;;;;;;;;;;5111355;28;1313;-71
2023/03/04 16:18:54;;;;;;;;;;;;;;;;;;5112236;28;1948;-70
2023/03/04 16:21:22;;;;;;;;;;;;;;;;;;5113482;28;875;-69
2023/03/04 16:23:48;;;;;;;;;;;;;;;;;;5115158;28;1201;-71
2023/03/04 16:26:15;;;;;;;;;;;;;;;;;;5112801;28;816;-70
2023/03/04 16:28:41;;;;;;;;;;;;;;;;;;5102817;28;1368;-70
2023/03/04 16:31:08;;;;;;;;;;;;;;;;;;5111153;28;1296;-70
2023/03/04 16:33:33;;;;;;;;;;;;;;;;;;5112322;28;1229;-71
2023/03/04 16:35:59;;;;;;;;;;;;;;;;;;5112966;28;954;-70
2023/03/04 16:38:29;;;;;;;;;;;;;;;;;;5112989;28;1886;-70
2023/03/04 16:40:55;;;;;;;;;;;;;;;;;;5112649;28;919;-70
2023/03/04 16:43:21;;;;;;;;;;;;;;;;;;5111246;28;1233;-71
2023/03/04 16:45:47;;;;;;;;;;;;;;;;;;5111511;28;805;-71
2023/03/04 16:48:12;;;;;;;;;;;;;;;;;;5111930;28;1362;-70
2023/03/04 16:50:38;;;;;;;;;;;;;;;;;;5112887;28;750;-70
2023/03/04 16:53:03;;;;;;;;;;;;;;;;;;5094010;28;1205;-71
2023/03/04 16:55:29;;;;;;;;;;;;;;;;;;5112958;28;843;-71
2023/03/04 16:57:56;;;;;;;;;;;;;;;;;;5112985;28;911;-71
2023/03/04 17:00:22;;;;;;;;;;;;;;;;;;5110781;28;1901;-71
2023/03/04 17:02:58;;;;;;;;;;;;;;;;;;5110074;28;1260;-70
2023/03/04 17:05:25;;;;;;;;;;;;;;;;;;5110621;28;1360;-71
2023/03/04 17:07:50;;;;;;;;;;;;;;;;;;5114600;28;1186;-71
2023/03/04 17:10:16;;;;;;;;;;;;;;;;;;5115921;28;1069;-70
2023/03/04 17:12:41;;;;;;;;;;;;;;;;;;5115332;28;1285;-71
2023/03/04 17:15:08;;;;;;;;;;;;;;;;;;5116352;28;793;-71
2023/03/04 17:17:34;;;;;;;;;;;;;;;;;;5116240;27;899;-71